Time;durP1;ratioP1;P1;durP2;ratioP2;P2;SDS_P1;SDS_P2;PMS_P1;PMS_P2;Temp;Humidity;BMP_temperature;BMP_pressure;BME280_temperature;BME280_humidity;BME280_pressure;Samples;Min_cycle;Max_cycle;Signal;HPM_P1;HPM_P2
2021/04/10 00:00:41;;;;;;;8.20;1.50;;;6.20;99.90;;;;;;5064558;28;20083;-72
2021/04/10 00:03:08;;;;;;;6.38;1.83;;;6.20;99.90;;;;;;5064711;28;20033;-73
2021/04/10 00:05:33;;;;;;;8.25;1.75;;;6.20;99.90;;;;;;5064448;28;20056;-73
2021/04/10 00:07:59;;;;;;;2.95;1.63;;;6.30;99.90;;;;;;5064533;28;20033;-73
2021/04/10 00:10:27;;;;;;;9.27;1.98;;;6.20;99.90;;;;;;5064693;28;20085;-72
2021/04/10 00:12:53;;;;;;;5.30;1.65;;;6.20;99.90;;;;;;5064526;28;20021;-72
2021/04/10 00:15:20;;;;;;;6.70;2.17;;;6.20;99.90;;;;;;5063083;28;20040;-74
2021/04/10 00:17:47;;;;;;;12.00;2.28;;;6.20;99.90;;;;;;5064468;28;20025;-75
2021/04/10 00:20:17;;;;;;;6.65;2.15;;;6.20;99.90;;;;;;5064301;28;20051;-73
2021/04/10 00:22:42;;;;;;;7.38;1.73;;;6.20;99.90;;;;;;5063104;28;20025;-73
2021/04/10 00:25:10;;;;;;;10.48;1.83;;;6.10;99.90;;;;;;5062927;28;20083;-74
2021/04/10 00:27:36;;;;;;;5.78;1.92;;;6.10;99.90;;;;;;5064421;28;20051;-74
2021/04/10 00:30:03;;;;;;;8.45;1.67;;;6.10;99.90;;;;;;5064193;28;20029;-73
2021/04/10 00:32:29;;;;;;;6.05;1.77;;;6.00;99.90;;;;;;5064146;28;20036;-73
2021/04/10 00:34:55;;;;;;;6.22;2.20;;;6.00;99.90;;;;;;5064147;28;20425;-73
2021/04/10 00:37:20;;;;;;;5.97;2.42;;;5.90;99.90;;;;;;5064431;28;20504;-75
2021/04/10 00:39:47;;;;;;;12.50;1.73;;;6.00;99.90;;;;;;5064461;28;20036;-73
2021/04/10 00:42:14;;;;;;;10.30;1.88;;;6.00;99.90;;;;;;5064164;28;20503;-75
2021/04/10 00:44:42;;;;;;;6.43;2.40;;;6.00;99.90;;;;;;5064337;28;20035;-74
2021/04/10 00:47:07;;;;;;;3.38;1.75;;;6.00;99.90;;;;;;5064147;28;20033;-72
2021/04/10 00:49:33;;;;;;;8.85;1.95;;;6.00;99.90;;;;;;5064138;28;20025;-73
2021/04/10 00:52:00;;;;;;;10.50;2.03;;;6.10;99.90;;;;;;5064167;28;20035;-74
2021/04/10 00:54:26;;;;;;;5.70;2.03;;;6.00;99.90;;;;;;5063961;28;20025;-73
2021/04/10 00:56:52;;;;;;;8.18;2.33;;;6.00;99.90;;;;;;5064058;28;20025;-73
2021/04/10 00:59:18;;;;;;;9.82;2.00;;;6.00;99.90;;;;;;5067004;28;20031;-71
2021/04/10 01:01:44;;;;;;;3.33;1.52;;;6.00;99.90;;;;;;5067997;28;20041;-73
2021/04/10 01:04:13;;;;;;;4.00;1.65;;;6.00;99.90;;;;;;5066725;28;20059;-73
2021/04/10 01:06:39;;;;;;;2.72;1.38;;;6.10;99.90;;;;;;5068064;28;20069;-74
2021/04/10 01:09:05;;;;;;;3.10;1.60;;;6.00;99.90;;;;;;5067861;28;20021;-73
2021/04/10 01:11:49;;;;;;;11.43;1.85;;;6.10;99.90;;;;;;5067738;28;20088;-72
2021/04/10 01:14:33;;;;;;;2.72;1.30;;;6.10;99.90;;;;;;5066256;28;20099;-74
2021/04/10 01:17:06;;;;;;;6.03;1.47;;;6.10;99.90;;;;;;5067875;28;20197;-73
2021/04/10 01:19:44;;;;;;;5.22;1.85;;;6.10;99.90;;;;;;5066008;28;20288;-73
2021/04/10 01:22:28;;;;;;;7.60;1.45;;;6.00;99.90;;;;;;5066424;28;20079;-73
2021/04/10 01:25:06;;;;;;;4.50;1.30;;;6.00;99.90;;;;;;5066122;28;20025;-73
2021/04/10 01:27:42;;;;;;;1.55;1.00;;;6.00;99.90;;;;;;5065721;28;20040;-73
2021/04/10 01:30:12;;;;;;;2.92;0.73;;;6.00;99.90;;;;;;5067550;28;20381;-75
2021/04/10 01:33:10;;;;;;;6.68;1.48;;;6.00;99.90;;;;;;5066078;28;20025;-73
2021/04/10 01:35:38;;;;;;;2.22;1.35;;;6.00;99.90;;;;;;5067304;28;20117;-74
2021/04/10 01:38:07;;;;;;;5.60;1.75;;;6.00;99.90;;;;;;5065988;28;20036;-73
2021/04/10 01:40:34;;;;;;;2.22;0.82;;;5.90;99.90;;;;;;5067428;28;20044;-73
2021/04/10 01:43:01;;;;;;;8.48;0.90;;;5.90;99.90;;;;;;5067080;28;20021;-72
2021/04/10 01:45:28;;;;;;;1.70;1.13;;;5.90;99.90;;;;;;5065700;28;20028;-73
2021/04/10 01:48:02;;;;;;;13.85;1.40;;;5.90;99.90;;;;;;5065796;28;20025;-73
2021/04/10 01:50:28;;;;;;;5.00;2.05;;;6.00;99.90;;;;;;5067045;28;20033;-73
2021/04/10 01:52:55;;;;;;;2.75;1.48;;;5.90;99.90;;;;;;5067125;28;20469;-71
2021/04/10 01:55:23;;;;;;;3.47;1.58;;;5.90;99.90;;;;;;5065175;28;20021;-71
2021/04/10 01:57:50;;;;;;;8.50;1.13;;;5.90;99.90;;;;;;5067008;28;20476;-74
2021/04/10 02:00:21;;;;;;;7.18;1.40;;;5.90;99.90;;;;;;5066813;28;20033;-73
2021/04/10 02:02:48;;;;;;;3.65;1.17;;;5.90;99.90;;;;;;5065771;28;20457;-72
2021/04/10 02:05:15;;;;;;;3.50;1.30;;;5.80;99.90;;;;;;5066827;28;20047;-72
2021/04/10 02:07:44;;;;;;;9.57;1.17;;;5.90;99.90;;;;;;5067032;28;20056;-74
2021/04/10 02:10:12;;;;;;;8.27;0.95;;;5.90;99.90;;;;;;5065268;28;20481;-72
2021/04/10 02:12:42;;;;;;;5.75;1.48;;;5.90;99.90;;;;;;5066738;28;20036;-73
2021/04/10 02:15:09;;;;;;;7.30;1.70;;;5.90;99.90;;;;;;5066519;28;20036;-74
2021/04/10 02:17:35;;;;;;;1.67;1.10;;;5.90;99.90;;;;;;5066150;28;20033;-73
2021/04/10 02:20:00;;;;;;;2.25;0.98;;;6.00;99.90;;;;;;5064490;28;20475;-71
2021/04/10 02:22:33;;;;;;;2.03;0.80;;;5.90;99.90;;;;;;5063994;28;20052;-74
2021/04/10 02:24:59;;;;;;;1.77;0.70;;;6.00;99.90;;;;;;5066159;28;20036;-72
2021/04/10 02:27:25;;;;;;;1.45;0.80;;;5.90;99.90;;;;;;5066325;28;20025;-72
2021/04/10 02:29:50;;;;;;;3.50;1.00;;;5.90;99.90;;;;;;5066220;28;20032;-74
2021/04/10 02:32:28;;;;;;;2.72;1.23;;;5.90;99.90;;;;;;5066308;28;20061;-73
2021/04/10 02:35:04;;;;;;;12.20;1.48;;;5.90;99.90;;;;;;5066028;28;20029;-71
2021/04/10 02:37:35;;;;;;;3.28;1.08;;;5.90;99.90;;;;;;5066316;28;20116;-71
2021/04/10 02:40:05;;;;;;;1.63;0.93;;;5.90;99.90;;;;;;5064122;28;20029;-72
2021/04/10 02:42:32;;;;;;;1.75;0.95;;;5.90;99.90;;;;;;5064190;28;20036;-73
2021/04/10 02:45:02;;;;;;;2.65;1.05;;;5.90;99.90;;;;;;5065364;28;20033;-71
2021/04/10 02:47:28;;;;;;;5.45;1.42;;;5.90;99.90;;;;;;5065776;28;20048;-72
2021/04/10 02:49:58;;;;;;;2.38;1.40;;;5.80;99.90;;;;;;5065576;28;20029;-74
2021/04/10 02:52:34;;;;;;;8.25;0.85;;;5.80;99.90;;;;;;5065653;28;20021;-72
2021/04/10 02:55:03;;;;;;;2.58;1.00;;;5.90;99.90;;;;;;5065617;28;20542;-72
2021/04/10 02:57:29;;;;;;;5.88;1.13;;;5.70;99.90;;;;;;5065678;28;20025;-73
2021/04/10 02:59:58;;;;;;;7.07;1.23;;;5.70;99.90;;;;;;5065070;28;20024;-72
2021/04/10 03:02:25;;;;;;;8.70;1.30;;;5.70;99.90;;;;;;5065695;28;20072;-73
2021/04/10 03:04:51;;;;;;;2.40;1.00;;;5.70;99.90;;;;;;5065429;28;20021;-74
2021/04/10 03:07:18;;;;;;;1.55;0.55;;;5.70;99.90;;;;;;5065865;28;20048;-72
2021/04/10 03:09:48;;;;;;;4.35;0.63;;;5.70;99.90;;;;;;5065526;28;20025;-72
2021/04/10 03:12:16;;;;;;;1.80;0.55;;;5.70;99.90;;;;;;5065405;28;20021;-74
2021/04/10 03:14:44;;;;;;;2.58;0.63;;;5.60;99.90;;;;;;5065458;28;20021;-73
2021/04/10 03:17:20;;;;;;;3.35;0.93;;;5.60;99.90;;;;;;5065503;28;20025;-72
2021/04/10 03:19:46;;;;;;;4.00;1.27;;;5.60;99.90;;;;;;5065354;28;20494;-72
2021/04/10 03:22:15;;;;;;;4.03;1.00;;;5.70;99.90;;;;;;5063316;28;20044;-74
2021/04/10 03:24:42;;;;;;;7.10;0.68;;;5.60;99.90;;;;;;5065537;28;20041;-74
2021/04/10 03:27:09;;;;;;;6.78;0.95;;;5.60;99.90;;;;;;5063794;28;20044;-73
2021/04/10 03:29:35;;;;;;;0.55;0.47;;;5.60;99.90;;;;;;5064985;28;20036;-72
2021/04/10 03:32:02;;;;;;;4.43;1.25;;;5.50;99.90;;;;;;5064783;28;20104;-72
2021/04/10 03:34:28;;;;;;;1.50;0.45;;;5.60;99.90;;;;;;5064906;28;20021;-73
2021/04/10 03:36:55;;;;;;;2.35;0.90;;;5.60;99.90;;;;;;5065198;28;20032;-72
2021/04/10 03:39:21;;;;;;;4.70;0.95;;;5.60;99.90;;;;;;5063694;28;20044;-71
2021/04/10 03:41:47;;;;;;;4.35;0.57;;;5.60;99.90;;;;;;5064651;28;20044;-74
2021/04/10 03:44:13;;;;;;;7.93;1.17;;;5.60;99.90;;;;;;5064914;28;20055;-71
2021/04/10 03:46:39;;;;;;;8.07;0.85;;;5.60;99.90;;;;;;5064931;28;20029;-73
2021/04/10 03:49:06;;;;;;;6.82;0.60;;;5.70;99.90;;;;;;5064913;28;20033;-72
2021/04/10 03:51:32;;;;;;;2.55;0.60;;;5.60;99.90;;;;;;5064733;28;20029;-73
2021/04/10 03:53:57;;;;;;;0.65;0.32;;;5.70;99.90;;;;;;5064640;28;20025;-73
2021/04/10 03:56:23;;;;;;;3.55;0.75;;;5.70;99.90;;;;;;5064540;28;20025;-72
2021/04/10 03:58:49;;;;;;;1.08;0.50;;;5.70;99.90;;;;;;5064610;28;20035;-72
2021/04/10 04:01:16;;;;;;;10.85;0.70;;;5.60;99.90;;;;;;5064811;28;20045;-73
2021/04/10 04:03:43;;;;;;;4.22;0.88;;;5.70;99.90;;;;;;5063417;28;20033;-70
2021/04/10 04:06:09;;;;;;;0.30;0.30;;;5.60;99.90;;;;;;5064790;28;20029;-74
2021/04/10 04:08:35;;;;;;;3.03;0.98;;;5.60;99.90;;;;;;5064789;28;20052;-71
2021/04/10 04:11:01;;;;;;;3.53;0.30;;;5.60;99.90;;;;;;5064491;28;20032;-71
2021/04/10 04:13:27;;;;;;;1.38;0.68;;;5.60;99.90;;;;;;5064335;28;20081;-75
2021/04/10 04:15:52;;;;;;;9.02;0.68;;;5.70;99.90;;;;;;5064007;28;20029;-71
2021/04/10 04:18:19;;;;;;;3.42;0.80;;;5.60;99.90;;;;;;5062878;28;20045;-74
2021/04/10 04:20:44;;;;;;;1.23;0.43;;;5.60;99.90;;;;;;5063958;28;20041;-75
2021/04/10 04:23:11;;;;;;;0.20;0.20;;;5.60;99.90;;;;;;5064674;28;20039;-72
2021/04/10 04:25:36;;;;;;;0.90;0.45;;;5.60;99.90;;;;;;5064486;28;20085;-74
2021/04/10 04:28:02;;;;;;;0.52;0.38;;;5.60;99.90;;;;;;5064443;28;20052;-73
2021/04/10 04:30:28;;;;;;;2.55;0.60;;;5.60;99.90;;;;;;5064183;28;20108;-73
2021/04/10 04:32:54;;;;;;;5.15;0.85;;;5.60;99.90;;;;;;5067031;28;20058;-73
2021/04/10 04:35:19;;;;;;;0.20;0.00;;;5.50;99.90;;;;;;5068725;28;20037;-73
2021/04/10 04:37:50;;;;;;;1.30;0.50;;;5.50;99.90;;;;;;5068517;28;20021;-73
2021/04/10 04:40:15;;;;;;;0.30;0.30;;;5.50;99.90;;;;;;5068772;28;20036;-74
2021/04/10 04:42:42;;;;;;;0.40;0.20;;;5.50;99.90;;;;;;5068467;28;20051;-74
2021/04/10 04:45:08;;;;;;;1.08;0.73;;;5.50;99.90;;;;;;5068282;28;20041;-73
2021/04/10 04:47:34;;;;;;;2.03;0.47;;;5.50;99.90;;;;;;5068289;28;20033;-72
2021/04/10 04:50:00;;;;;;;0.32;0.10;;;5.50;99.90;;;;;;5066764;28;20033;-73
2021/04/10 04:52:30;;;;;;;3.95;1.00;;;5.50;99.90;;;;;;5067752;28;20060;-72
2021/04/10 04:54:56;;;;;;;4.90;1.20;;;5.50;99.90;;;;;;5068021;28;20025;-73
2021/04/10 04:57:21;;;;;;;1.80;0.63;;;5.50;99.90;;;;;;5061209;28;20024;-75
2021/04/10 04:59:47;;;;;;;2.05;0.73;;;5.60;99.90;;;;;;5059297;28;20055;-75
2021/04/10 05:02:14;;;;;;;2.47;0.88;;;5.60;99.90;;;;;;5048103;28;20033;-76
2021/04/10 05:04:41;;;;;;;1.52;0.50;;;5.60;99.90;;;;;;5064746;28;20429;-75
2021/04/10 05:07:07;;;;;;;3.90;1.02;;;5.60;99.90;;;;;;5058446;28;20431;-75
2021/04/10 05:09:33;;;;;;;1.05;0.75;;;5.60;99.90;;;;;;5058146;28;20128;-75
2021/04/10 05:11:59;;;;;;;1.00;0.75;;;5.50;99.90;;;;;;5046398;28;20025;-74
2021/04/10 05:14:24;;;;;;;3.42;0.98;;;5.50;99.90;;;;;;5047420;28;20040;-74
2021/04/10 05:16:51;;;;;;;1.27;0.50;;;5.50;99.90;;;;;;5046235;28;20120;-75
2021/04/10 05:19:17;;;;;;;3.80;0.77;;;5.50;99.90;;;;;;5047384;28;20049;-76
2021/04/10 05:21:47;;;;;;;3.92;0.80;;;5.50;99.90;;;;;;5047669;28;20120;-75
2021/04/10 05:24:13;;;;;;;4.65;0.88;;;5.50;99.90;;;;;;5047765;28;20036;-75
2021/04/10 05:26:38;;;;;;;5.10;1.13;;;5.50;99.90;;;;;;5047309;28;20025;-74
2021/04/10 05:29:04;;;;;;;2.08;0.70;;;5.50;99.90;;;;;;5047213;28;20026;-74
2021/04/10 05:31:30;;;;;;;4.95;0.35;;;5.50;99.90;;;;;;5047392;28;20026;-74
2021/04/10 05:33:56;;;;;;;2.55;0.47;;;5.60;99.90;;;;;;5047164;28;20044;-74
2021/04/10 05:36:22;;;;;;;9.07;1.27;;;5.60;99.90;;;;;;5045798;28;20112;-75
2021/04/10 05:38:48;;;;;;;2.70;1.25;;;5.60;99.90;;;;;;5047226;28;20037;-74
2021/04/10 05:41:14;;;;;;;3.15;0.75;;;5.60;99.90;;;;;;5045948;28;20444;-74
2021/04/10 05:43:40;;;;;;;3.50;0.73;;;5.60;99.90;;;;;;5046677;28;20038;-74
2021/04/10 05:46:06;;;;;;;4.95;1.05;;;5.60;99.90;;;;;;5046941;28;20029;-74
2021/04/10 05:48:32;;;;;;;1.88;0.70;;;5.70;99.90;;;;;;5045495;28;20033;-74
2021/04/10 05:50:58;;;;;;;4.15;0.50;;;5.70;99.90;;;;;;5047059;28;20021;-74
2021/04/10 05:53:26;;;;;;;1.50;0.57;;;5.70;99.90;;;;;;5046563;28;20032;-75
2021/04/10 05:55:52;;;;;;;5.05;0.75;;;5.70;99.90;;;;;;5046949;28;20021;-74
2021/04/10 05:58:17;;;;;;;8.13;0.65;;;5.70;99.90;;;;;;5046877;28;20031;-76
2021/04/10 06:00:45;;;;;;;1.50;0.70;;;5.70;99.90;;;;;;5045501;28;20064;-75
2021/04/10 06:03:13;;;;;;;2.40;1.17;;;5.70;99.90;;;;;;5045749;28;20025;-74
2021/04/10 06:05:39;;;;;;;1.42;0.45;;;5.80;99.90;;;;;;5045314;28;20327;-74
2021/04/10 06:08:04;;;;;;;0.82;0.55;;;5.80;99.90;;;;;;5046116;28;20049;-74
2021/04/10 06:10:30;;;;;;;7.72;0.75;;;5.80;99.90;;;;;;5046703;28;20029;-73
2021/04/10 06:12:55;;;;;;;7.20;0.98;;;5.90;99.90;;;;;;5045795;28;20052;-74
2021/04/10 06:15:21;;;;;;;2.83;1.17;;;5.90;99.90;;;;;;5046561;28;20027;-73
2021/04/10 06:17:48;;;;;;;7.13;1.08;;;6.00;99.90;;;;;;5044945;28;20049;-73
2021/04/10 06:20:16;;;;;;;2.35;0.68;;;6.00;99.90;;;;;;5044651;28;20032;-74
2021/04/10 06:22:43;;;;;;;4.65;1.17;;;6.10;99.90;;;;;;5046658;28;20030;-74
2021/04/10 06:25:09;;;;;;;3.58;1.00;;;6.10;99.90;;;;;;5049719;28;20089;-73
2021/04/10 06:27:36;;;;;;;2.42;1.15;;;6.20;99.90;;;;;;5050936;28;20029;-74
2021/04/10 06:30:02;;;;;;;3.03;0.98;;;6.20;99.90;;;;;;5047988;28;20060;-73
2021/04/10 06:32:28;;;;;;;8.13;3.20;;;6.20;99.90;;;;;;5064785;28;20025;-74
2021/04/10 06:34:53;;;;;;;2.65;1.17;;;6.30;99.90;;;;;;5047164;28;20032;-73
2021/04/10 06:37:19;;;;;;;5.60;1.33;;;6.30;99.90;;;;;;5044957;28;20032;-73
2021/04/10 06:39:47;;;;;;;8.07;1.60;;;6.30;99.90;;;;;;5046481;28;20043;-75
2021/04/10 06:42:13;;;;;;;2.55;1.17;;;6.30;99.90;;;;;;5046246;28;20116;-74
2021/04/10 06:44:39;;;;;;;9.10;2.15;;;6.50;99.90;;;;;;5046199;28;20025;-73
2021/04/10 06:47:05;;;;;;;2.42;0.93;;;6.40;99.90;;;;;;5045845;28;20041;-72
2021/04/10 06:49:32;;;;;;;1.77;0.70;;;6.50;99.90;;;;;;5046034;28;20104;-72
2021/04/10 06:51:58;;;;;;;5.63;0.98;;;6.60;99.90;;;;;;5045962;28;20030;-73
2021/04/10 06:54:30;;;;;;;4.57;1.35;;;6.60;99.90;;;;;;5045424;28;20026;-73
2021/04/10 06:57:13;;;;;;;6.65;1.45;;;6.60;99.90;;;;;;5044964;28;20045;-73
2021/04/10 06:59:51;;;;;;;12.45;1.25;;;6.60;99.90;;;;;;5045475;28;20044;-73
2021/04/10 07:02:19;;;;;;;6.10;1.08;;;6.70;99.90;;;;;;5045503;28;20092;-74
2021/04/10 07:04:46;;;;;;;5.60;1.08;;;6.80;99.90;;;;;;5045518;28;20036;-74
2021/04/10 07:07:12;;;;;;;2.50;1.42;;;6.80;99.90;;;;;;5044544;28;20053;-72
2021/04/10 07:09:38;;;;;;;6.43;1.02;;;6.70;99.90;;;;;;5045651;28;20029;-73
2021/04/10 07:12:05;;;;;;;5.10;0.65;;;6.70;99.90;;;;;;5044297;28;20025;-72
2021/04/10 07:14:31;;;;;;;5.55;1.08;;;6.80;99.90;;;;;;5045190;28;20032;-72
2021/04/10 07:16:57;;;;;;;1.75;1.00;;;6.90;99.90;;;;;;5044105;28;20386;-73
2021/04/10 07:19:26;;;;;;;2.30;1.08;;;7.00;99.90;;;;;;5044722;28;20057;-73
2021/04/10 07:22:21;;;;;;;15.13;1.55;;;7.00;99.90;;;;;;5045345;28;20068;-72
2021/04/10 07:24:51;;;;;;;;;;;7.20;99.90;;;;;;5048983;28;20046;-74
2021/04/10 07:27:19;;;;;;;2.80;1.15;;;7.30;99.90;;;;;;5045445;28;19905;-74
2021/04/10 07:29:52;;;;;;;1.17;0.90;;;7.30;99.90;;;;;;5044931;28;20030;-73
2021/04/10 07:32:37;;;;;;;3.97;1.67;;;7.30;99.90;;;;;;5053564;28;20040;-72
2021/04/10 07:35:11;;;;;;;1.80;0.93;;;7.40;99.90;;;;;;5046937;28;20034;-74
2021/04/10 07:37:42;;;;;;;4.15;1.33;;;7.50;99.90;;;;;;5065095;28;20051;-72
2021/04/10 07:40:27;;;;;;;5.10;1.48;;;7.60;99.90;;;;;;5063414;28;20025;-72
2021/04/10 07:43:42;;;;;;;6.50;1.35;;;7.70;99.90;;;;;;5047008;28;20033;-74
2021/04/10 07:46:27;;;;;;;7.85;1.58;;;7.90;99.90;;;;;;5062347;28;20044;-73
2021/04/10 07:49:10;;;;;;;0.55;0.38;;;8.00;99.90;;;;;;5064382;28;20059;-74
2021/04/10 07:51:56;;;;;;;8.02;1.20;;;8.10;99.90;;;;;;5064839;28;20085;-72
2021/04/10 07:54:35;;;;;;;10.95;1.95;;;8.10;99.90;;;;;;5053724;28;20018;-73
2021/04/10 07:57:08;;;;;;;1.83;1.27;;;8.30;99.90;;;;;;5044914;28;20029;-73
2021/04/10 07:59:56;;;;;;;4.20;1.05;;;8.40;99.90;;;;;;5043956;28;20033;-74
2021/04/10 08:02:22;;;;;;;1.95;0.88;;;8.50;99.90;;;;;;5042937;28;20040;-74
2021/04/10 08:04:57;;;;;;;10.43;1.20;;;8.70;99.90;;;;;;5043391;28;20060;-74
2021/04/10 08:07:24;;;;;;;5.25;0.77;;;8.60;99.90;;;;;;5044283;28;20390;-73
2021/04/10 08:09:57;;;;;;;6.53;1.08;;;8.70;99.90;;;;;;5044632;28;20029;-73
2021/04/10 08:12:26;;;;;;;3.58;0.68;;;8.80;99.90;;;;;;5045380;28;20017;-74
2021/04/10 08:14:52;;;;;;;4.38;0.55;;;8.90;99.90;;;;;;5051325;28;20104;-73
2021/04/10 08:17:41;;;;;;;2.65;0.73;;;9.00;99.90;;;;;;5053220;28;20029;-74
2021/04/10 08:20:24;;;;;;;10.80;1.38;;;9.20;99.90;;;;;;5044267;28;20045;-71
2021/04/10 08:22:51;;;;;;;1.38;0.43;;;9.20;99.90;;;;;;5043113;28;20037;-74
2021/04/10 08:25:31;;;;;;;9.52;1.23;;;9.00;99.90;;;;;;5064369;28;20025;-74
2021/04/10 08:27:58;;;;;;;1.75;0.77;;;9.20;99.90;;;;;;5064101;28;20081;-73
2021/04/10 08:30:38;;;;;;;3.83;0.63;;;9.20;99.90;;;;;;5064019;28;20029;-72
2021/04/10 08:33:04;;;;;;;1.63;0.43;;;9.20;99.90;;;;;;5063455;28;20029;-71
2021/04/10 08:35:29;;;;;;;3.05;0.98;;;9.10;99.90;;;;;;5062020;28;20032;-72
2021/04/10 08:38:00;;;;;;;7.18;1.20;;;9.10;99.90;;;;;;5063953;28;20485;-72
2021/04/10 08:40:29;;;;;;;5.38;1.13;;;9.20;99.90;;;;;;5062042;28;20025;-75
2021/04/10 08:42:57;;;;;;;1.27;0.52;;;9.20;99.90;;;;;;5048641;28;20022;-72
2021/04/10 08:45:34;;;;;;;3.22;1.10;;;9.40;99.90;;;;;;5044153;28;20053;-73
2021/04/10 08:48:05;;;;;;;6.07;1.00;;;9.50;99.90;;;;;;5042729;28;20375;-72
2021/04/10 08:50:33;;;;;;;3.65;0.85;;;9.90;99.90;;;;;;5044016;28;20017;-72
2021/04/10 08:53:04;;;;;;;2.15;0.82;;;10.10;99.90;;;;;;5043987;28;20040;-73
2021/04/10 08:55:30;;;;;;;1.13;0.60;;;10.20;99.90;;;;;;5052238;28;20096;-74
2021/04/10 08:57:56;;;;;;;5.65;1.13;;;10.40;99.90;;;;;;5048794;28;20060;-73
2021/04/10 09:00:25;;;;;;;1.33;0.40;;;10.50;99.90;;;;;;5049475;28;20115;-73
2021/04/10 09:02:59;;;;;;;2.00;0.77;;;10.60;99.90;;;;;;5058948;28;20044;-74
2021/04/10 09:05:51;;;;;;;2.55;0.85;;;10.70;99.90;;;;;;5062683;28;20032;-73
2021/04/10 09:08:29;;;;;;;4.15;0.57;;;10.60;99.90;;;;;;5046560;28;20040;-74
2021/04/10 09:10:58;;;;;;;3.25;0.65;;;10.50;99.90;;;;;;5043996;28;20049;-73
2021/04/10 09:13:26;;;;;;;9.52;1.05;;;10.40;99.90;;;;;;5043635;28;20028;-74
2021/04/10 09:16:28;;;;;;;2.53;0.80;;;10.30;99.90;;;;;;5050171;28;20057;-73
2021/04/10 09:18:58;;;;;;;12.18;0.60;;;10.30;99.90;;;;;;5051386;28;20052;-73
2021/04/10 09:21:33;;;;;;;2.70;1.15;;;10.30;99.90;;;;;;5057146;28;20034;-72
2021/04/10 09:23:59;;;;;;;2.42;0.50;;;10.20;99.90;;;;;;5047477;28;20490;-73
2021/04/10 09:26:25;;;;;;;3.90;0.80;;;10.20;99.90;;;;;;5051597;28;20037;-73
2021/04/10 09:28:54;;;;;;;3.47;0.73;;;10.30;99.90;;;;;;5060024;28;20029;-74
2021/04/10 09:31:44;;;;;;;6.43;1.05;;;10.40;99.90;;;;;;5055565;28;20064;-74
2021/04/10 09:34:53;;;;;;;2.53;0.85;;;10.40;99.90;;;;;;5048045;28;20430;-73
2021/04/10 09:37:21;;;;;;;1.05;0.60;;;10.60;99.90;;;;;;5052931;28;20037;-74
2021/04/10 09:39:57;;;;;;;0.52;0.47;;;10.90;99.90;;;;;;5027617;28;20037;-74
2021/04/10 09:42:38;;;;;;;13.38;1.27;;;11.00;99.90;;;;;;5036708;28;20048;-73
2021/04/10 09:45:31;;;;;;;6.22;1.08;;;11.10;99.90;;;;;;5051510;28;20171;-73
2021/04/10 09:47:57;;;;;;;3.58;0.85;;;11.20;99.90;;;;;;5047055;28;20089;-73
2021/04/10 09:50:24;;;;;;;1.95;0.73;;;11.20;99.90;;;;;;5045545;28;20386;-73
2021/04/10 09:52:58;;;;;;;3.30;0.82;;;11.30;99.90;;;;;;5047091;28;20026;-74
2021/04/10 09:55:25;;;;;;;3.67;1.08;;;11.30;99.90;;;;;;5058108;28;20079;-73
2021/04/10 09:57:54;;;;;;;3.88;0.80;;;11.40;99.90;;;;;;5066722;28;20068;-72
2021/04/10 10:00:38;;;;;;;1.90;0.50;;;11.60;99.90;;;;;;5066729;28;20036;-73
2021/04/10 10:03:08;;;;;;;5.18;1.20;;;11.60;99.90;;;;;;5066831;28;20048;-74
2021/04/10 10:05:35;;;;;;;1.45;0.52;;;11.70;99.90;;;;;;5066330;28;20021;-73
2021/04/10 10:08:15;;;;;;;4.10;0.75;;;11.70;99.90;;;;;;5066830;28;20059;-73
2021/04/10 10:10:48;;;;;;;1.88;0.85;;;11.60;99.90;;;;;;5067000;28;20496;-72
2021/04/10 10:13:16;;;;;;;2.30;0.70;;;11.80;99.90;;;;;;5067074;28;20400;-75
2021/04/10 10:15:43;;;;;;;1.27;0.95;;;11.90;99.90;;;;;;5066604;28;20029;-73
2021/04/10 10:18:23;;;;;;;3.50;0.85;;;12.00;99.90;;;;;;5066340;28;20128;-72
2021/04/10 10:21:06;;;;;;;1.95;0.65;;;12.10;99.90;;;;;;5066508;28;20041;-74
2021/04/10 10:23:34;;;;;;;0.80;0.35;;;12.20;99.90;;;;;;5066375;28;20032;-73
2021/04/10 10:26:04;;;;;;;4.65;1.25;;;12.30;99.90;;;;;;5064622;28;20040;-74
2021/04/10 10:28:30;;;;;;;0.63;0.52;;;12.40;99.90;;;;;;5065921;28;20077;-75
2021/04/10 10:30:59;;;;;;;3.85;1.10;;;12.60;99.90;;;;;;5065999;28;20053;-74
2021/04/10 10:33:25;;;;;;;4.55;1.13;;;12.90;99.90;;;;;;5065075;28;20021;-73
2021/04/10 10:35:52;;;;;;;3.28;1.17;;;13.20;99.90;;;;;;5066111;28;20078;-73
2021/04/10 10:38:19;;;;;;;2.55;0.98;;;13.30;99.90;;;;;;5052361;28;20029;-73
2021/04/10 10:40:49;;;;;;;3.72;0.85;;;13.50;99.90;;;;;;5055124;28;20037;-71
2021/04/10 10:43:18;;;;;;;2.45;0.98;;;13.80;99.90;;;;;;5044842;28;20060;-73
2021/04/10 10:46:04;;;;;;;1.45;0.57;;;13.90;99.90;;;;;;5043755;28;20116;-74
2021/04/10 10:48:40;;;;;;;1.50;0.75;;;13.90;99.90;;;;;;5048439;28;20474;-74
2021/04/10 10:51:21;;;;;;;2.85;1.00;;;13.90;99.90;;;;;;5045108;28;20104;-73
2021/04/10 10:53:52;;;;;;;6.88;0.95;;;14.00;99.90;;;;;;5045446;28;20025;-72
2021/04/10 10:56:28;;;;;;;2.58;1.05;;;14.10;99.90;;;;;;5044235;28;20098;-72
2021/04/10 10:58:56;;;;;;;2.45;0.88;;;14.10;99.90;;;;;;5044335;28;20086;-72
2021/04/10 11:01:41;;;;;;;2.95;0.75;;;14.20;99.90;;;;;;5043089;28;20038;-74
2021/04/10 11:04:25;;;;;;;6.68;1.17;;;14.20;99.90;;;;;;5024244;28;20029;-71
2021/04/10 11:06:56;;;;;;;1.85;0.57;;;14.20;99.90;;;;;;5024168;28;20548;-72
2021/04/10 11:09:25;;;;;;;0.57;0.50;;;14.20;99.90;;;;;;5024537;28;20038;-71
2021/04/10 11:11:57;;;;;;;3.10;0.70;;;14.10;99.90;;;;;;5024530;28;20481;-74
2021/04/10 11:14:28;;;;;;;2.00;0.65;;;14.00;99.90;;;;;;5024584;28;20473;-71
2021/04/10 11:16:57;;;;;;;1.65;0.93;;;13.90;99.90;;;;;;5024331;28;20093;-73
2021/04/10 11:19:29;;;;;;;5.45;0.63;;;14.00;99.90;;;;;;5033851;28;20049;-71
2021/04/10 11:21:56;;;;;;;1.38;0.77;;;14.00;99.90;;;;;;5046873;28;20128;-73
2021/04/10 11:24:23;;;;;;;2.15;0.77;;;13.90;99.90;;;;;;5044384;28;20053;-73
2021/04/10 11:26:54;;;;;;;1.38;0.75;;;14.00;99.90;;;;;;5044136;28;20033;-75
2021/04/10 11:29:34;;;;;;;1.85;0.70;;;14.10;99.90;;;;;;5044281;28;20040;-73
2021/04/10 11:32:20;;;;;;;3.45;1.20;;;14.30;99.90;;;;;;5044131;28;20107;-71
2021/04/10 11:34:46;;;;;;;6.85;0.90;;;14.40;99.90;;;;;;5053596;28;20036;-73
2021/04/10 11:37:14;;;;;;;0.90;0.40;;;14.30;99.90;;;;;;5065436;28;20037;-71
2021/04/10 11:39:57;;;;;;;5.22;1.30;;;14.40;99.90;;;;;;5064599;28;20044;-73
2021/04/10 11:42:33;;;;;;;2.88;0.60;;;14.60;99.90;;;;;;5063328;28;20032;-73
2021/04/10 11:45:01;;;;;;;3.50;0.80;;;14.70;99.90;;;;;;5063756;28;20025;-73
2021/04/10 11:47:28;;;;;;;4.47;0.73;;;14.70;99.90;;;;;;5064677;28;20040;-73
2021/04/10 11:50:16;;;;;;;0.73;0.50;;;14.80;99.90;;;;;;5064901;28;20029;-73
2021/04/10 11:52:44;;;;;;;3.75;0.63;;;14.80;99.90;;;;;;5047773;28;20089;-73
2021/04/10 11:55:14;;;;;;;7.18;1.05;;;14.70;99.90;;;;;;5045132;28;20029;-72
2021/04/10 11:57:41;;;;;;;3.50;1.13;;;14.50;99.90;;;;;;5044780;28;20029;-73
2021/04/10 12:00:15;;;;;;;6.38;0.93;;;14.60;99.90;;;;;;5044706;28;20102;-71
2021/04/10 12:02:43;;;;;;;2.92;1.17;;;14.80;99.90;;;;;;5045022;28;20731;-72
2021/04/10 12:05:19;;;;;;;2.28;0.75;;;15.00;99.90;;;;;;5044966;28;20041;-74
2021/04/10 12:08:04;;;;;;;0.90;0.63;;;15.10;99.90;;;;;;5044592;28;20108;-72
2021/04/10 12:10:31;;;;;;;3.40;0.85;;;15.20;97.90;;;;;;5044481;28;20032;-72
2021/04/10 12:12:57;;;;;;;2.33;0.93;;;15.10;99.90;;;;;;5044623;28;20025;-73
2021/04/10 12:15:30;;;;;;;1.25;0.82;;;15.30;99.90;;;;;;5044633;28;20030;-73
2021/04/10 12:17:56;;;;;;;1.23;0.65;;;15.60;99.90;;;;;;5042728;28;20072;-71
2021/04/10 12:20:23;;;;;;;2.30;0.93;;;15.80;98.00;;;;;;5056750;28;20029;-72
2021/04/10 12:22:51;;;;;;;0.75;0.47;;;16.00;98.10;;;;;;5064434;28;20040;-73
2021/04/10 12:25:17;;;;;;;0.20;0.20;;;15.60;97.80;;;;;;5064685;28;20028;-73
2021/04/10 12:27:42;;;;;;;1.75;0.90;;;15.50;97.10;;;;;;5064424;28;20029;-73
2021/04/10 12:30:08;;;;;;;2.25;0.65;;;15.30;99.90;;;;;;5064301;28;20560;-73
2021/04/10 12:32:34;;;;;;;2.90;0.75;;;15.40;98.40;;;;;;5064471;28;20025;-74
2021/04/10 12:35:00;;;;;;;1.30;0.90;;;15.40;99.90;;;;;;5064308;28;20032;-71
2021/04/10 12:37:26;;;;;;;9.07;1.00;;;15.40;98.50;;;;;;5064189;28;20080;-71
2021/04/10 12:39:52;;;;;;;2.58;0.93;;;15.40;96.80;;;;;;5064169;28;20442;-72
2021/04/10 12:42:18;;;;;;;6.65;1.05;;;15.20;98.80;;;;;;5062760;28;20048;-71
2021/04/10 12:44:43;;;;;;;1.45;0.80;;;15.10;98.30;;;;;;5064016;28;20040;-73
2021/04/10 12:47:16;;;;;;;4.70;0.77;;;14.90;97.50;;;;;;5064309;28;20036;-73
2021/04/10 12:49:46;;;;;;;5.20;0.70;;;14.90;97.60;;;;;;5064713;28;20033;-72
2021/04/10 12:52:19;;;;;;;1.45;0.88;;;15.00;96.50;;;;;;5064111;28;20032;-74
2021/04/10 12:54:46;;;;;;;6.30;1.20;;;14.80;97.80;;;;;;5066602;28;20051;-72
2021/04/10 12:57:12;;;;;;;5.22;0.70;;;14.60;97.00;;;;;;5068307;28;20084;-73
2021/04/10 12:59:38;;;;;;;8.13;1.20;;;14.20;98.00;;;;;;5066749;28;20036;-73
2021/04/10 13:02:05;;;;;;;3.08;0.43;;;14.00;99.10;;;;;;5062506;28;20044;-73
2021/04/10 13:04:32;;;;;;;2.35;1.15;;;14.00;98.70;;;;;;5054180;28;20032;-73
2021/04/10 13:07:00;;;;;;;2.85;0.95;;;13.90;98.30;;;;;;5056199;28;20032;-71